Time;durP1;ratioP1;P1;durP2;ratioP2;P2;SDS_P1;SDS_P2;PMS_P1;PMS_P2;Temp;Humidity;BMP_temperature;BMP_pressure;BME280_temperature;BME280_humidity;BME280_pressure;Samples;Min_cycle;Max_cycle;Signal;HPM_P1;HPM_P2
2023/09/28 03:03:09;;;;;;;9.85;5.82;;;18.00;90.00;;;;;;4997370;26;20045;-87
2023/09/28 03:05:38;;;;;;;8.98;5.30;;;18.00;90.00;;;;;;5033499;28;20037;-85
2023/09/28 03:08:09;;;;;;;8.13;4.65;;;18.00;89.90;;;;;;5045214;28;20104;-86
2023/09/28 03:10:39;;;;;;;10.68;5.05;;;18.00;89.90;;;;;;5026457;28;20037;-85
2023/09/28 03:13:05;;;;;;;;;;;18.10;90.00;;;;;;5047018;28;20082;-85
2023/09/28 03:15:31;;;;;;;8.80;5.32;;;18.00;89.90;;;;;;5046119;28;19909;-84
2023/09/28 03:17:57;;;;;;;12.27;4.90;;;18.00;89.90;;;;;;5042929;28;20107;-86
2023/09/28 03:20:24;;;;;;;6.55;4.35;;;18.00;89.80;;;;;;5048820;28;20104;-87
2023/09/28 03:22:50;;;;;;;8.43;5.05;;;18.00;89.80;;;;;;5045930;28;20029;-87
2023/09/28 03:25:18;;;;;;;8.18;4.75;;;18.00;89.80;;;;;;5045665;28;20352;-84
2023/09/28 03:27:45;;;;;;;7.60;4.85;;;18.00;89.70;;;;;;5025695;28;20424;-86
2023/09/28 03:30:12;;;;;;;8.68;5.25;;;18.00;89.70;;;;;;5038340;28;20129;-86
2023/09/28 03:32:38;;;;;;;17.02;4.72;;;18.00;89.70;;;;;;5044223;28;20508;-86
2023/09/28 03:35:09;;;;;;;8.93;4.57;;;18.00;89.70;;;;;;5030456;28;20023;-85
2023/09/28 03:37:34;;;;;;;8.25;4.88;;;18.00;89.70;;;;;;5031753;28;20465;-86
2023/09/28 03:40:10;;;;;;;12.88;4.80;;;18.00;89.70;;;;;;5045273;28;20029;-86
2023/09/28 03:42:37;;;;;;;7.70;4.95;;;18.00;89.70;;;;;;5044596;28;20029;-85
2023/09/28 03:45:04;;;;;;;6.97;4.75;;;18.00;89.60;;;;;;5029999;28;20025;-86
2023/09/28 03:47:31;;;;;;;7.75;4.40;;;18.00;89.60;;;;;;5031472;28;20400;-85
2023/09/28 03:49:57;;;;;;;6.80;4.65;;;18.00;89.60;;;;;;5033922;28;20044;-86
2023/09/28 03:52:23;;;;;;;9.27;5.05;;;18.00;89.50;;;;;;5031969;28;20025;-87
2023/09/28 03:54:49;;;;;;;12.23;4.65;;;18.00;89.50;;;;;;5031020;28;20693;-87
2023/09/28 03:57:14;;;;;;;8.27;4.70;;;18.60;90.30;;;;;;5044532;28;20096;-86
2023/09/28 03:59:40;;;;;;;8.88;5.00;;;18.00;89.50;;;;;;5045121;28;20029;-86
2023/09/28 04:02:06;;;;;;;11.55;4.80;;;17.90;89.40;;;;;;5044572;28;20048;-85
2023/09/28 04:04:32;;;;;;;10.32;5.03;;;18.00;89.50;;;;;;5044135;28;20104;-86
2023/09/28 04:06:57;;;;;;;11.15;4.95;;;17.90;89.40;;;;;;5043943;28;20135;-85
2023/09/28 04:09:23;;;;;;;7.82;4.72;;;18.00;89.40;;;;;;5024251;28;20128;-86
2023/09/28 04:11:49;;;;;;;14.20;5.30;;;18.00;89.40;;;;;;5045483;28;20752;-85
2023/09/28 04:14:15;;;;;;;12.48;6.20;;;18.00;89.40;;;;;;5027864;28;20021;-86
2023/09/28 04:16:41;;;;;;;10.40;5.82;;;18.00;89.30;;;;;;5043922;28;20032;-86
2023/09/28 04:19:07;;;;;;;9.50;5.55;;;17.90;89.30;;;;;;5030697;28;20369;-87
2023/09/28 04:21:33;;;;;;;16.23;5.93;;;17.90;89.20;;;;;;5030292;28;20388;-86
2023/09/28 04:23:59;;;;;;;8.40;5.28;;;17.90;89.20;;;;;;5046270;28;20435;-85
2023/09/28 04:26:25;;;;;;;10.00;5.25;;;18.00;89.20;;;;;;5030815;28;20107;-86
2023/09/28 04:28:52;;;;;;;16.63;5.45;;;17.90;89.20;;;;;;5041305;28;20033;-86
2023/09/28 04:31:18;;;;;;;8.30;4.75;;;17.90;89.10;;;;;;5046699;28;20040;-87
2023/09/28 04:33:44;;;;;;;10.15;4.40;;;17.90;89.10;;;;;;5029254;28;20421;-86
2023/09/28 04:36:10;;;;;;;8.68;3.80;;;17.90;89.10;;;;;;5043698;28;20033;-87
2023/09/28 04:38:36;;;;;;;7.43;4.50;;;17.90;89.10;;;;;;5043599;28;20100;-86
2023/09/28 04:41:02;;;;;;;10.25;4.78;;;17.90;89.10;;;;;;5044803;28;20025;-86
2023/09/28 04:43:28;;;;;;;7.53;4.05;;;17.90;89.10;;;;;;5031695;28;20358;-87
2023/09/28 04:45:54;;;;;;;9.82;4.30;;;17.90;89.10;;;;;;5044915;28;20030;-87
2023/09/28 04:48:19;;;;;;;7.53;4.00;;;17.90;89.00;;;;;;5024599;28;20121;-86
2023/09/28 04:50:45;;;;;;;7.70;4.32;;;17.90;89.10;;;;;;5029561;28;20064;-86
2023/09/28 04:53:10;;;;;;;7.95;3.88;;;18.00;89.10;;;;;;5046975;28;20070;-86
2023/09/28 04:55:36;;;;;;;10.05;4.10;;;17.90;89.10;;;;;;5025892;28;20033;-88
2023/09/28 04:58:02;;;;;;;9.60;4.20;;;17.90;89.00;;;;;;5046893;28;20072;-85
2023/09/28 05:00:27;;;;;;;13.98;4.50;;;17.90;89.00;;;;;;5026379;28;20017;-87
2023/09/28 05:02:53;;;;;;;6.18;4.03;;;17.90;89.00;;;;;;5044715;28;20028;-87
2023/09/28 05:05:19;;;;;;;8.13;4.25;;;17.90;89.00;;;;;;5042556;28;20474;-87
2023/09/28 05:07:44;;;;;;;8.35;4.32;;;18.00;89.10;;;;;;5030167;28;20029;-87
2023/09/28 05:10:10;;;;;;;10.95;4.53;;;17.90;89.00;;;;;;5044983;28;20037;-87
2023/09/28 05:12:35;;;;;;;9.52;4.20;;;17.90;88.90;;;;;;5044868;28;20025;-87
2023/09/28 05:15:02;;;;;;;14.82;4.80;;;17.90;88.90;;;;;;5025327;28;20040;-86
2023/09/28 05:17:28;;;;;;;10.45;3.83;;;17.90;88.90;;;;;;5030095;28;20491;-87
2023/09/28 05:19:54;;;;;;;9.75;3.97;;;17.90;88.90;;;;;;5040653;28;20427;-88
2023/09/28 05:22:19;;;;;;;8.55;4.45;;;17.90;88.90;;;;;;5028956;28;20250;-85
2023/09/28 05:24:46;;;;;;;7.97;4.85;;;17.90;88.90;;;;;;5028528;28;20061;-87
2023/09/28 05:27:11;;;;;;;9.68;4.60;;;17.90;88.90;;;;;;5029845;28;20029;-88
2023/09/28 05:29:37;;;;;;;14.65;5.45;;;17.90;88.90;;;;;;5030762;28;20039;-87
2023/09/28 05:32:05;;;;;;;9.75;4.85;;;17.90;88.90;;;;;;5026686;28;20083;-88
2023/09/28 05:34:30;;;;;;;12.45;5.93;;;17.90;88.90;;;;;;5031603;28;20031;-86
2023/09/28 05:36:56;;;;;;;16.02;5.88;;;17.90;88.90;;;;;;5046504;28;20104;-89
2023/09/28 05:39:22;;;;;;;10.90;5.70;;;17.90;88.90;;;;;;5029250;28;20029;-87
2023/09/28 05:41:47;;;;;;;15.63;5.68;;;17.90;89.60;;;;;;5042653;28;20029;-87
2023/09/28 05:44:14;;;;;;;12.40;5.72;;;17.90;88.90;;;;;;5047595;28;20032;-87
2023/09/28 05:46:40;;;;;;;11.50;5.43;;;17.90;88.90;;;;;;5031021;28;20025;-87
2023/09/28 05:49:05;;;;;;;13.25;5.72;;;18.00;88.90;;;;;;5029086;28;20033;-87
2023/09/28 05:51:31;;;;;;;8.23;4.72;;;17.90;88.90;;;;;;5046607;28;20029;-87
2023/09/28 05:53:56;;;;;;;12.15;5.25;;;17.90;89.60;;;;;;5021899;28;20040;-87
2023/09/28 05:56:22;;;;;;;8.18;4.43;;;17.90;88.80;;;;;;5048762;28;20024;-86
2023/09/28 05:58:48;;;;;;;10.93;5.05;;;17.90;88.80;;;;;;5047014;28;20338;-87
2023/09/28 06:01:17;;;;;;;11.82;5.35;;;17.90;88.90;;;;;;5045552;28;20029;-88
2023/09/28 06:03:43;;;;;;;6.53;4.20;;;17.90;88.90;;;;;;5030692;28;20443;-86
2023/09/28 06:06:19;;;;;;;9.15;5.20;;;18.10;88.90;;;;;;5025048;28;20057;-87
2023/09/28 06:08:50;;;;;;;8.90;5.30;;;17.90;88.90;;;;;;5027439;28;20033;-87
2023/09/28 06:11:17;;;;;;;12.75;6.38;;;17.90;88.90;;;;;;5029624;28;20090;-87
2023/09/28 06:13:44;;;;;;;16.10;6.40;;;17.90;88.80;;;;;;5033721;28;20489;-87
2023/09/28 06:16:14;;;;;;;12.40;5.63;;;17.90;88.90;;;;;;5049247;28;20015;-87
2023/09/28 06:18:44;;;;;;;11.45;5.65;;;17.90;88.80;;;;;;5047773;28;20029;-87
2023/09/28 06:21:09;;;;;;;11.10;5.75;;;17.90;88.90;;;;;;5034052;28;20036;-87
2023/09/28 06:23:35;;;;;;;14.95;5.78;;;17.90;88.90;;;;;;5046302;28;20047;-87
2023/09/28 06:26:01;;;;;;;11.65;5.65;;;17.90;88.90;;;;;;5049718;28;20021;-88
2023/09/28 06:28:27;;;;;;;15.95;5.38;;;18.00;88.90;;;;;;5050030;28;20100;-87
2023/09/28 06:30:54;;;;;;;12.18;5.15;;;17.90;88.90;;;;;;5033442;28;20148;-87
2023/09/28 06:33:25;;;;;;;25.30;5.60;;;17.90;88.90;;;;;;5031719;28;20052;-88
2023/09/28 06:35:51;;;;;;;9.30;4.68;;;17.90;88.90;;;;;;5034126;28;20079;-87
2023/09/28 06:38:17;;;;;;;10.73;5.43;;;17.90;88.90;;;;;;5049097;28;20024;-87
2023/09/28 06:40:44;;;;;;;9.10;5.05;;;18.00;88.90;;;;;;5048245;28;20497;-88
2023/09/28 06:43:10;;;;;;;10.15;5.63;;;17.90;88.90;;;;;;5026722;28;20090;-87
2023/09/28 06:45:36;;;;;;;11.50;5.03;;;18.00;89.00;;;;;;5047677;28;20021;-89
2023/09/28 06:48:01;;;;;;;10.93;5.35;;;17.90;88.90;;;;;;5045110;28;20037;-88
2023/09/28 06:50:29;;;;;;;12.00;4.38;;;18.00;89.00;;;;;;5033114;28;20036;-86
2023/09/28 06:52:54;;;;;;;12.55;5.10;;;18.00;89.00;;;;;;5047046;28;20071;-87
2023/09/28 06:55:23;;;;;;;13.98;4.55;;;18.00;89.00;;;;;;5029459;28;20029;-87
2023/09/28 06:57:49;;;;;;;21.77;4.95;;;18.00;89.00;;;;;;5046812;28;20029;-87
2023/09/28 07:00:16;;;;;;;10.25;4.45;;;18.00;89.00;;;;;;5030380;28;20416;-86
2023/09/28 07:02:47;;;;;;;18.52;4.82;;;18.00;89.00;;;;;;5028030;28;20473;-86
2023/09/28 07:05:16;;;;;;;;;;;18.00;89.00;;;;;;5029874;28;20033;-86
2023/09/28 07:07:44;;;;;;;23.13;5.60;;;18.00;89.10;;;;;;5046575;28;19905;-86
2023/09/28 07:10:13;;;;;;;13.77;5.25;;;18.00;89.10;;;;;;5047459;28;20098;-87
2023/09/28 07:12:40;;;;;;;17.20;5.07;;;18.00;89.10;;;;;;5029682;28;20048;-87
2023/09/28 07:15:07;;;;;;;11.85;5.15;;;18.00;89.20;;;;;;5031407;28;20489;-86
2023/09/28 07:17:33;;;;;;;17.05;5.78;;;18.00;89.20;;;;;;5033953;28;20024;-87
2023/09/28 07:20:00;;;;;;;18.02;6.35;;;18.00;89.30;;;;;;5032359;28;20124;-86
2023/09/28 07:22:26;;;;;;;11.82;5.90;;;18.00;89.40;;;;;;5047215;28;20481;-86
2023/09/28 07:24:55;;;;;;;10.57;5.60;;;18.00;89.30;;;;;;5033699;28;20032;-86
2023/09/28 07:27:21;;;;;;;12.68;5.82;;;18.10;89.40;;;;;;5045090;28;20087;-87
2023/09/28 07:29:48;;;;;;;11.27;4.90;;;18.00;89.50;;;;;;5032234;28;20492;-86
2023/09/28 07:32:14;;;;;;;12.43;5.22;;;18.10;89.50;;;;;;5048516;28;20029;-88
2023/09/28 07:34:42;;;;;;;13.13;4.80;;;18.10;89.60;;;;;;5048064;28;20036;-88
2023/09/28 07:37:07;;;;;;;12.60;5.60;;;18.10;89.60;;;;;;5028090;28;20083;-87
2023/09/28 07:39:33;;;;;;;12.70;5.40;;;18.10;89.50;;;;;;5031302;28;20029;-88
2023/09/28 07:42:04;;;;;;;9.23;4.75;;;18.10;89.60;;;;;;5043684;28;20036;-87
2023/09/28 07:44:30;;;;;;;11.02;5.95;;;18.10;89.60;;;;;;5030551;28;20028;-87
2023/09/28 07:46:55;;;;;;;11.73;5.50;;;18.10;89.60;;;;;;5032903;28;20032;-87
2023/09/28 07:49:21;;;;;;;15.43;5.82;;;18.10;89.60;;;;;;5029916;28;20584;-86
2023/09/28 07:51:47;;;;;;;15.23;6.57;;;18.10;89.70;;;;;;5043052;28;20052;-87
2023/09/28 07:54:12;;;;;;;18.55;6.05;;;18.10;89.70;;;;;;5045760;28;20044;-87
2023/09/28 07:56:38;;;;;;;12.05;5.95;;;18.10;89.70;;;;;;5028804;28;20116;-87
2023/09/28 07:59:04;;;;;;;11.88;6.18;;;18.10;89.80;;;;;;5045636;28;20605;-87
2023/09/28 08:01:29;;;;;;;14.05;6.38;;;18.10;89.90;;;;;;5048090;28;20385;-88
2023/09/28 08:03:55;;;;;;;11.55;5.70;;;18.10;89.80;;;;;;5045688;28;20028;-87
2023/09/28 08:06:21;;;;;;;15.43;5.20;;;18.10;89.80;;;;;;5044181;28;20021;-87
2023/09/28 08:08:46;;;;;;;14.77;6.05;;;18.10;89.90;;;;;;5031929;28;20021;-85
2023/09/28 08:11:13;;;;;;;11.48;5.80;;;18.10;89.80;;;;;;5043189;28;20041;-86
2023/09/28 08:13:39;;;;;;;15.30;6.40;;;18.10;90.00;;;;;;5043626;28;20695;-85
2023/09/28 08:16:04;;;;;;;12.38;5.75;;;18.10;90.10;;;;;;5039723;28;20063;-84
2023/09/28 08:18:30;;;;;;;11.65;5.43;;;18.00;90.40;;;;;;5032950;28;20442;-83
2023/09/28 08:20:56;;;;;;;17.10;5.93;;;18.10;90.60;;;;;;5041932;28;20112;-84
2023/09/28 08:23:22;;;;;;;15.73;5.88;;;18.00;90.80;;;;;;5045870;28;20029;-85
2023/09/28 08:25:47;;;;;;;10.07;5.38;;;18.10;90.90;;;;;;5045269;28;20142;-84
2023/09/28 08:28:14;;;;;;;9.23;4.88;;;18.00;91.00;;;;;;5044116;28;20061;-82
2023/09/28 08:30:40;;;;;;;11.82;5.90;;;18.10;91.00;;;;;;5044511;28;20033;-85
2023/09/28 08:33:07;;;;;;;10.20;4.90;;;18.10;91.10;;;;;;5039474;28;20355;-84
2023/09/28 08:35:34;;;;;;;15.50;5.60;;;18.10;91.20;;;;;;5041235;28;20025;-83
2023/09/28 08:37:59;;;;;;;12.10;5.15;;;18.00;91.20;;;;;;5043844;28;20539;-84
2023/09/28 08:40:26;;;;;;;14.63;6.00;;;18.00;91.30;;;;;;5040764;28;20033;-83
2023/09/28 08:42:54;;;;;;;16.92;6.57;;;18.00;91.50;;;;;;5043340;28;20021;-83
2023/09/28 08:45:20;;;;;;;11.77;5.72;;;18.00;91.50;;;;;;5040522;28;20061;-83
2023/09/28 08:47:52;;;;;;;13.45;7.30;;;18.00;91.70;;;;;;5039825;28;20048;-84
2023/09/28 08:50:34;;;;;;;14.52;6.50;;;18.00;91.70;;;;;;5040930;28;20065;-84
2023/09/28 08:53:00;;;;;;;12.43;5.80;;;18.00;91.90;;;;;;5037474;28;20106;-82
2023/09/28 08:55:27;;;;;;;11.18;6.20;;;18.00;92.00;;;;;;5023654;28;20448;-82
2023/09/28 08:57:54;;;;;;;14.10;8.25;;;18.00;92.10;;;;;;5046384;28;20024;-84
2023/09/28 09:00:23;;;;;;;13.93;6.68;;;18.10;92.00;;;;;;5044215;28;20029;-83
2023/09/28 09:02:51;;;;;;;18.03;7.70;;;18.10;92.00;;;;;;5030898;28;20389;-84
2023/09/28 09:05:17;;;;;;;14.02;7.20;;;18.00;91.90;;;;;;5050589;28;20068;-83
2023/09/28 09:07:43;;;;;;;11.75;6.53;;;18.00;91.90;;;;;;5044503;28;20064;-85
2023/09/28 09:10:12;;;;;;;11.90;6.10;;;18.00;91.80;;;;;;5045255;28;20068;-82
2023/09/28 09:12:39;;;;;;;14.00;6.82;;;18.10;91.90;;;;;;5046945;28;20037;-84
2023/09/28 09:15:05;;;;;;;24.38;8.50;;;18.10;92.00;;;;;;5043559;28;20556;-83
2023/09/28 09:17:35;;;;;;;13.70;6.55;;;18.10;92.10;;;;;;5047587;28;20021;-81
2023/09/28 09:20:01;;;;;;;15.90;5.85;;;18.10;92.20;;;;;;5041613;28;20112;-84
2023/09/28 09:22:28;;;;;;;9.95;5.85;;;18.10;92.20;;;;;;5038154;28;20112;-82
2023/09/28 09:24:56;;;;;;;17.40;6.05;;;18.10;92.30;;;;;;5043372;28;20457;-82
2023/09/28 09:27:27;;;;;;;15.35;6.40;;;18.20;92.20;;;;;;5036564;28;20415;-83
2023/09/28 09:30:03;;;;;;;10.82;6.43;;;18.20;92.10;;;;;;5045975;28;20035;-82
2023/09/28 09:32:28;;;;;;;14.98;6.53;;;18.20;92.10;;;;;;5044439;28;20043;-83
2023/09/28 09:34:54;;;;;;;13.13;5.65;;;18.20;92.30;;;;;;5044378;28;20009;-84
2023/09/28 09:37:20;;;;;;;14.40;6.13;;;18.20;92.30;;;;;;5040667;28;20029;-82
2023/09/28 09:39:46;;;;;;;15.38;6.25;;;18.30;92.20;;;;;;5044905;28;20014;-84
2023/09/28 09:42:12;;;;;;;14.20;5.90;;;18.30;92.10;;;;;;5039896;28;20032;-82
2023/09/28 09:44:38;;;;;;;12.55;6.18;;;18.30;92.10;;;;;;5039054;28;20025;-85
2023/09/28 09:47:03;;;;;;;13.68;6.18;;;18.30;92.10;;;;;;5022276;28;20025;-81
2023/09/28 09:49:29;;;;;;;10.18;5.47;;;18.30;92.20;;;;;;5042735;28;20038;-85
2023/09/28 09:52:00;;;;;;;17.58;6.70;;;18.40;92.20;;;;;;5048679;28;20017;-83
2023/09/28 09:54:26;;;;;;;12.65;5.57;;;18.40;92.60;;;;;;5045813;28;20036;-83
2023/09/28 09:56:53;;;;;;;9.40;5.00;;;18.40;92.40;;;;;;5043059;28;20111;-81
2023/09/28 09:59:21;;;;;;;9.70;5.28;;;18.50;92.50;;;;;;5042132;28;20025;-83
2023/09/28 10:01:48;;;;;;;10.43;5.13;;;18.50;92.50;;;;;;5044872;28;20041;-84
2023/09/28 10:04:16;;;;;;;13.80;5.70;;;18.50;92.60;;;;;;5046526;28;20025;-84
2023/09/28 10:06:50;;;;;;;11.73;4.85;;;18.60;92.60;;;;;;5046171;28;20029;-85
2023/09/28 10:09:17;;;;;;;13.00;5.38;;;18.60;92.80;;;;;;5047705;28;20041;-88
2023/09/28 10:11:45;;;;;;;13.35;4.82;;;18.70;92.60;;;;;;5042478;28;20558;-91
2023/09/28 10:14:12;;;;;;;10.18;5.00;;;18.70;92.50;;;;;;5047012;28;20485;-90
2023/09/28 10:16:39;;;;;;;10.75;5.25;;;18.70;92.40;;;;;;5029231;28;20048;-84
2023/09/28 10:19:06;;;;;;;13.05;5.28;;;18.70;92.40;;;;;;5029209;28;20017;-89
2023/09/28 10:21:36;;;;;;;17.67;4.80;;;18.80;92.40;;;;;;5048369;28;20032;-87
2023/09/28 10:24:08;;;;;;;;;;;18.80;92.40;;;;;;5047420;28;20025;-86
2023/09/28 10:26:35;;;;;;;14.20;4.82;;;18.80;92.30;;;;;;5045585;28;19944;-89
2023/09/28 10:29:05;;;;;;;11.18;4.78;;;18.80;92.20;;;;;;5041726;28;20060;-85
2023/09/28 10:31:32;;;;;;;7.97;4.18;;;18.90;92.10;;;;;;5049103;28;20029;-87
2023/09/28 10:34:02;;;;;;;7.35;4.47;;;18.90;92.00;;;;;;5040775;28;20029;-88
2023/09/28 10:36:28;;;;;;;12.50;4.80;;;18.90;91.90;;;;;;5035210;28;20029;-87
2023/09/28 10:39:15;;;;;;;7.32;3.65;;;19.00;91.80;;;;;;5044453;28;20025;-87
2023/09/28 10:41:49;;;;;;;11.35;4.78;;;19.00;91.90;;;;;;5052424;28;20674;-88
2023/09/28 10:44:17;;;;;;;8.70;4.57;;;19.00;91.90;;;;;;5050690;28;20026;-87
2023/09/28 10:46:45;;;;;;;11.52;4.78;;;19.10;91.90;;;;;;5031484;28;20025;-87
2023/09/28 10:49:24;;;;;;;8.65;4.07;;;19.10;91.70;;;;;;5026555;28;20061;-85
2023/09/28 10:51:51;;;;;;;9.35;3.75;;;19.10;91.50;;;;;;5046341;28;20033;-85
2023/09/28 10:54:17;;;;;;;6.60;4.05;;;19.10;91.60;;;;;;5050185;28;20041;-87
2023/09/28 10:56:42;;;;;;;10.38;4.55;;;19.20;91.50;;;;;;5046079;28;20061;-86
2023/09/28 10:59:11;;;;;;;8.15;4.05;;;19.20;91.10;;;;;;5047223;28;20021;-85
2023/09/28 11:01:44;;;;;;;6.68;3.50;;;19.20;91.20;;;;;;5045379;28;20504;-85
2023/09/28 11:04:10;;;;;;;11.32;3.40;;;19.30;90.90;;;;;;5045268;28;20025;-86
2023/09/28 11:06:36;;;;;;;9.32;3.20;;;19.30;90.90;;;;;;5034075;28;20021;-87
2023/09/28 11:09:02;;;;;;;6.60;3.42;;;19.30;91.10;;;;;;5049082;28;20453;-85
2023/09/28 11:11:29;;;;;;;7.90;3.90;;;19.40;91.00;;;;;;5046872;28;20496;-86
2023/09/28 11:13:59;;;;;;;10.25;4.05;;;19.40;90.70;;;;;;5045938;28;20112;-86
2023/09/28 11:16:26;;;;;;;;;;;19.40;90.80;;;;;;5047753;28;20048;-89
2023/09/28 11:18:52;;;;;;;8.98;3.38;;;19.40;90.60;;;;;;5049359;28;19904;-86
2023/09/28 11:21:18;;;;;;;8.80;3.58;;;19.50;89.40;;;;;;5045637;28;20111;-86
2023/09/28 11:23:45;;;;;;;6.72;3.22;;;19.50;89.20;;;;;;5045340;28;20537;-86
2023/09/28 11:26:11;;;;;;;5.85;3.25;;;19.50;90.00;;;;;;5043641;28;20405;-88
2023/09/28 11:28:38;;;;;;;5.90;2.75;;;19.50;87.80;;;;;;5042867;28;20013;-85
2023/09/28 11:31:14;;;;;;;9.00;3.30;;;19.50;87.50;;;;;;5028226;28;20397;-87
2023/09/28 11:33:42;;;;;;;7.63;2.55;;;19.50;87.10;;;;;;5041883;28;20082;-88
2023/09/28 11:36:11;;;;;;;10.38;3.30;;;19.60;87.20;;;;;;5047868;28;20032;-87
2023/09/28 11:38:39;;;;;;;7.28;3.33;;;19.60;86.80;;;;;;5044463;28;20378;-85
2023/09/28 11:41:05;;;;;;;8.20;3.22;;;19.60;85.40;;;;;;5029010;28;20028;-87
2023/09/28 11:44:03;;;;;;;16.45;4.55;;;19.70;85.80;;;;;;5045128;28;20466;-87
2023/09/28 11:46:31;;;;;;;5.80;3.10;;;19.70;86.40;;;;;;5045137;28;20139;-88
2023/09/28 11:49:09;;;;;;;5.30;3.40;;;19.80;86.00;;;;;;5049065;28;20017;-83
2023/09/28 11:51:36;;;;;;;6.93;2.85;;;19.70;85.40;;;;;;5046341;28;20048;-88
2023/09/28 11:54:05;;;;;;;6.20;3.28;;;19.80;84.90;;;;;;5046977;28;20108;-87
2023/09/28 11:56:31;;;;;;;5.82;3.10;;;19.80;84.40;;;;;;5031738;28;20025;-85
2023/09/28 11:58:57;;;;;;;10.45;3.05;;;19.80;84.90;;;;;;5042887;28;20037;-86
2023/09/28 12:01:23;;;;;;;6.60;2.40;;;19.90;84.70;;;;;;5045457;28;20048;-85
2023/09/28 12:03:49;;;;;;;9.38;3.00;;;19.90;84.50;;;;;;5033350;28;20025;-87
2023/09/28 12:06:19;;;;;;;5.63;2.80;;;19.90;83.60;;;;;;5033073;28;20033;-87
2023/09/28 12:08:45;;;;;;;3.25;2.22;;;20.00;83.20;;;;;;5046314;28;20481;-87
2023/09/28 12:11:11;;;;;;;6.10;3.40;;;20.00;81.90;;;;;;5045368;28;20045;-87
2023/09/28 12:13:37;;;;;;;6.10;2.47;;;20.10;79.20;;;;;;5042830;28;20022;-87
2023/09/28 12:16:03;;;;;;;4.93;2.30;;;20.10;79.60;;;;;;5031443;28;20466;-86
2023/09/28 12:18:29;;;;;;;6.47;2.83;;;20.10;79.30;;;;;;5044353;28;20108;-86
2023/09/28 12:20:55;;;;;;;5.20;2.17;;;20.10;78.60;;;;;;5042612;28;20093;-87
2023/09/28 12:23:21;;;;;;;5.35;2.17;;;20.20;79.00;;;;;;5049662;28;20111;-87
2023/09/28 12:25:46;;;;;;;4.75;2.17;;;20.20;78.40;;;;;;5031428;28;20024;-88
2023/09/28 12:28:12;;;;;;;6.38;2.13;;;20.20;77.20;;;;;;5028897;28;20012;-85
2023/09/28 12:30:38;;;;;;;3.35;2.13;;;20.20;75.60;;;;;;5047511;28;20112;-86
2023/09/28 12:33:08;;;;;;;4.13;2.38;;;20.30;75.80;;;;;;5029674;28;20022;-93
2023/09/28 12:35:34;;;;;;;5.88;2.22;;;20.30;74.90;;;;;;5028410;28;20041;-91
2023/09/28 12:38:03;;;;;;;3.58;2.08;;;20.30;76.20;;;;;;5033186;28;20028;-94
2023/09/28 12:40:32;;;;;;;14.53;2.20;;;20.20;77.20;;;;;;5029878;28;20076;-95
2023/09/28 12:43:04;;;;;;;13.40;2.42;;;20.10;78.00;;;;;;5045836;28;20024;-93
2023/09/28 12:45:32;;;;;;;3.33;2.17;;;20.10;78.70;;;;;;5028624;28;20037;-96
2023/09/28 12:47:59;;;;;;;5.53;2.45;;;20.00;79.20;;;;;;5026736;28;20487;-93
2023/09/28 12:50:24;;;;;;;4.90;1.85;;;19.90;79.60;;;;;;5027229;28;20057;-94
2023/09/28 12:52:50;;;;;;;4.05;2.28;;;19.90;80.00;;;;;;5034920;28;20382;-92
2023/09/28 12:55:15;;;;;;;4.22;2.35;;;19.80;80.40;;;;;;5026803;28;20112;-93
2023/09/28 12:57:42;;;;;;;7.00;2.08;;;19.80;80.70;;;;;;5029001;28;20025;-92
2023/09/28 13:00:10;;;;;;;4.78;2.22;;;19.70;81.00;;;;;;5033419;28;20031;-92
2023/09/28 13:02:37;;;;;;;6.97;1.77;;;19.70;81.30;;;;;;5034464;28;20147;-92
2023/09/28 13:05:05;;;;;;;5.43;2.13;;;19.60;81.50;;;;;;5033872;28;20412;-95
2023/09/28 13:07:31;;;;;;;2.70;1.77;;;19.60;81.70;;;;;;5032726;28;20033;-93
2023/09/28 13:09:57;;;;;;;2.92;1.90;;;19.50;81.80;;;;;;5028365;28;20036;-91
2023/09/28 13:12:23;;;;;;;4.20;2.13;;;19.50;82.00;;;;;;5031757;28;20048;-92
2023/09/28 13:14:50;;;;;;;3.90;1.90;;;19.50;82.10;;;;;;5046614;28;20488;-92
2023/09/28 13:17:16;;;;;;;5.43;2.35;;;19.40;82.20;;;;;;5040586;28;20028;-93
2023/09/28 13:19:43;;;;;;;3.67;1.80;;;19.40;82.30;;;;;;5031037;28;20025;-92
2023/09/28 13:22:09;;;;;;;3.53;1.80;;;19.40;82.50;;;;;;5032365;28;20029;-93
2023/09/28 13:24:37;;;;;;;3.17;2.20;;;19.30;82.40;;;;;;5033032;28;20021;-93
2023/09/28 13:27:05;;;;;;;2.58;1.90;;;19.30;82.50;;;;;;5031394;28;20466;-90
2023/09/28 13:29:34;;;;;;;5.47;1.65;;;19.30;82.50;;;;;;5029202;28;20096;-94
2023/09/28 13:32:01;;;;;;;2.80;1.67;;;19.30;82.60;;;;;;5031225;28;20073;-92
2023/09/28 13:34:27;;;;;;;2.40;1.42;;;19.30;82.70;;;;;;5033012;28;20266;-92
2023/09/28 13:36:54;;;;;;;6.63;1.90;;;19.20;82.80;;;;;;5023684;28;20036;-93
2023/09/28 13:39:29;;;;;;;5.72;1.90;;;19.20;82.80;;;;;;5025526;28;20021;-92
2023/09/28 13:42:01;;;;;;;4.50;2.10;;;19.20;82.80;;;;;;5029288;28;20029;-90
2023/09/28 13:44:27;;;;;;;6.95;2.03;;;19.20;83.00;;;;;;5029534;28;20025;-94
2023/09/28 13:47:00;;;;;;;6.00;1.80;;;19.20;83.10;;;;;;5045634;28;20120;-92
2023/09/28 13:49:28;;;;;;;4.53;1.83;;;19.20;83.20;;;;;;5032415;28;20456;-92
2023/09/28 13:51:57;;;;;;;4.43;2.03;;;19.20;83.30;;;;;;5031910;28;20021;-91
2023/09/28 13:54:26;;;;;;;2.75;2.00;;;19.20;83.40;;;;;;5043653;28;20478;-92
2023/09/28 13:56:59;;;;;;;3.15;1.85;;;19.10;83.50;;;;;;5029041;28;20480;-93
2023/09/28 13:59:25;;;;;;;6.30;2.03;;;19.10;83.60;;;;;;5028087;28;20029;-91
2023/09/28 14:01:51;;;;;;;5.15;2.30;;;19.10;83.80;;;;;;5027841;28;20033;-90
2023/09/28 14:04:18;;;;;;;5.90;1.75;;;19.10;83.90;;;;;;5032255;28;20473;-92
2023/09/28 14:06:44;;;;;;;7.50;2.03;;;19.10;84.00;;;;;;5045541;28;20032;-93
2023/09/28 14:09:11;;;;;;;5.97;2.00;;;19.10;84.10;;;;;;5030771;28;20022;-93
2023/09/28 14:11:42;;;;;;;5.88;2.03;;;19.00;84.20;;;;;;5026530;28;20045;-92
2023/09/28 14:14:09;;;;;;;2.95;1.63;;;19.50;84.60;;;;;;5046210;28;20133;-92
2023/09/28 14:16:38;;;;;;;3.28;1.85;;;19.00;84.40;;;;;;5031992;28;20021;-93
2023/09/28 14:19:06;;;;;;;3.37;1.73;;;19.00;84.50;;;;;;5042948;28;20025;-91
2023/09/28 14:21:33;;;;;;;4.22;1.85;;;19.00;84.60;;;;;;5032585;28;20057;-93
2023/09/28 14:23:59;;;;;;;6.85;1.98;;;19.00;84.70;;;;;;5043107;28;20018;-92
2023/09/28 14:26:26;;;;;;;3.22;1.60;;;19.00;84.70;;;;;;5031556;28;20025;-92
2023/09/28 14:28:51;;;;;;;2.88;1.67;;;19.00;84.80;;;;;;5043863;28;20029;-91
2023/09/28 14:31:18;;;;;;;3.20;1.73;;;19.00;84.80;;;;;;5043734;28;20037;-93
2023/09/28 14:33:44;;;;;;;7.10;2.03;;;19.00;84.80;;;;;;5034072;28;20489;-92
2023/09/28 14:36:12;;;;;;;3.28;1.98;;;19.00;84.90;;;;;;5035495;28;20047;-93
2023/09/28 14:38:38;;;;;;;2.53;1.73;;;19.00;84.90;;;;;;5051463;28;20113;-92
2023/09/28 14:41:03;;;;;;;4.15;2.10;;;19.00;84.90;;;;;;5034280;28;20120;-92
2023/09/28 14:43:29;;;;;;;4.95;2.45;;;19.00;85.00;;;;;;5035438;28;20068;-93
2023/09/28 14:45:56;;;;;;;2.97;1.85;;;19.00;85.00;;;;;;5034233;28;20381;-92
2023/09/28 14:48:22;;;;;;;3.15;1.83;;;19.20;85.10;;;;;;5032471;28;20029;-92
2023/09/28 14:50:47;;;;;;;4.60;1.77;;;19.00;85.10;;;;;;5030556;28;20043;-92
2023/09/28 14:53:15;;;;;;;5.10;1.88;;;18.90;85.00;;;;;;5033915;28;20026;-94
2023/09/28 14:55:41;;;;;;;2.78;1.20;;;18.90;85.10;;;;;;5032899;28;20026;-90
2023/09/28 14:58:07;;;;;;;2.67;1.45;;;19.00;85.20;;;;;;5031425;28;20435;-90
2023/09/28 15:00:33;;;;;;;3.25;1.27;;;19.00;85.20;;;;;;5035177;28;20113;-91
2023/09/28 15:02:58;;;;;;;1.77;1.30;;;18.90;85.10;;;;;;5045198;28;20036;-92
2023/09/28 15:05:25;;;;;;;6.18;1.65;;;18.90;85.10;;;;;;5034604;28;20032;-92
2023/09/28 15:07:52;;;;;;;1.75;1.35;;;18.90;85.10;;;;;;5033216;28;20037;-93
2023/09/28 15:10:18;;;;;;;4.88;1.30;;;18.90;85.20;;;;;;5036137;28;20040;-91
2023/09/28 15:12:44;;;;;;;2.28;1.40;;;18.90;85.20;;;;;;5030585;28;20470;-92
2023/09/28 15:15:10;;;;;;;1.83;1.20;;;18.80;85.10;;;;;;5027655;28;20017;-92
2023/09/28 15:17:36;;;;;;;1.98;1.23;;;18.80;85.10;;;;;;5033797;28;20100;-85
2023/09/28 15:20:09;;;;;;;2.60;1.20;;;18.80;84.80;;;;;;5047971;28;20108;-90
2023/09/28 15:22:34;;;;;;;3.67;1.40;;;18.90;82.20;;;;;;5034395;28;20026;-90
2023/09/28 15:25:00;;;;;;;2.10;1.50;;;18.90;82.20;;;;;;5045438;28;20484;-89
2023/09/28 15:27:26;;;;;;;3.00;1.63;;;19.40;83.40;;;;;;5048682;28;20017;-90
2023/09/28 15:29:52;;;;;;;7.55;1.40;;;18.90;82.20;;;;;;5033427;28;20040;-90
2023/09/28 15:32:17;;;;;;;2.75;1.70;;;18.90;82.30;;;;;;5033186;28;20014;-89
2023/09/28 15:34:43;;;;;;;5.68;1.60;;;18.90;82.40;;;;;;5032846;28;20021;-90
2023/09/28 15:37:11;;;;;;;1.60;1.38;;;18.90;82.60;;;;;;5029306;28;20045;-90
2023/09/28 15:39:37;;;;;;;4.55;1.48;;;18.90;82.70;;;;;;5026560;28;20029;-89
2023/09/28 15:42:06;;;;;;;4.90;1.80;;;18.90;82.90;;;;;;5032764;28;20025;-90
2023/09/28 15:44:35;;;;;;;3.70;1.90;;;18.90;83.00;;;;;;5046830;28;20048;-90